createdAt,value
2023-04-03T03:02:05.973Z,60.97
2023-04-03T03:04:34.373Z,61.08
2023-04-03T03:07:03.996Z,61.03
2023-04-03T03:09:32.991Z,61.04
2023-04-03T03:12:01.800Z,61.16
2023-04-03T03:14:32.643Z,61.03
2023-04-03T03:17:01.813Z,61.03
2023-04-03T03:19:31.221Z,60.99
2023-04-03T03:22:01.057Z,61.08
2023-04-03T03:24:30.399Z,61.16
2023-04-03T03:26:59.254Z,61.16
2023-04-03T03:29:28.347Z,61.18
2023-04-03T03:31:57.473Z,61.15
2023-04-03T03:34:26.591Z,61.15
2023-04-03T03:36:55.515Z,61.15
2023-04-03T03:39:24.731Z,61.20
2023-04-03T03:41:55.348Z,61.07
2023-04-03T03:44:24.704Z,61.17
2023-04-03T03:46:55.446Z,61.28
2023-04-03T03:49:25.091Z,61.20
2023-04-03T03:51:54.429Z,61.20
2023-04-03T03:54:23.725Z,61.29
2023-04-03T03:56:53.345Z,61.23
2023-04-03T03:59:22.626Z,61.21
2023-04-03T04:01:51.888Z,61.23
2023-04-03T04:04:20.571Z,61.35
2023-04-03T04:06:50.328Z,61.27
2023-04-03T04:09:19.759Z,61.21
2023-04-03T04:11:48.843Z,61.27
2023-04-03T04:14:22.026Z,61.14
2023-04-03T04:16:52.238Z,61.23
2023-04-03T04:19:25.954Z,61.28
2023-04-03T04:21:54.899Z,61.24
2023-04-03T04:24:24.573Z,61.27
2023-04-03T04:26:55.157Z,61.27
2023-04-03T04:29:24.770Z,61.21
2023-04-03T04:31:54.147Z,61.30
2023-04-03T04:34:24.163Z,61.30
2023-04-03T04:36:54.000Z,61.22
2023-04-03T04:39:23.231Z,61.34
2023-04-03T04:41:52.842Z,61.32
2023-04-03T04:44:22.377Z,61.17
2023-04-03T04:46:51.642Z,61.23
2023-04-03T04:49:21.078Z,61.28
2023-04-03T04:51:52.486Z,61.05
2023-04-03T04:54:26.632Z,61.24
2023-04-03T04:56:55.276Z,61.26
2023-04-03T04:59:24.858Z,61.22
2023-04-03T05:01:55.027Z,61.17
2023-04-03T05:04:24.602Z,61.29
2023-04-03T05:06:57.080Z,61.17
2023-04-03T05:09:28.493Z,61.14
2023-04-03T05:11:58.690Z,60.91
2023-04-03T05:14:30.481Z,60.90
2023-04-03T05:17:04.097Z,61.17
2023-04-03T05:19:35.594Z,60.70
2023-04-03T05:22:05.989Z,60.56
2023-04-03T05:24:35.549Z,60.28
2023-04-03T05:27:05.853Z,60.26
2023-04-03T05:29:36.748Z,60.54
2023-04-03T05:32:06.470Z,60.47
2023-04-03T05:34:35.458Z,60.62
2023-04-03T05:37:06.635Z,60.04
2023-04-03T05:39:37.083Z,59.50
2023-04-03T05:42:07.485Z,59.78
2023-04-03T05:44:37.030Z,59.68
2023-04-03T05:47:07.386Z,59.50
2023-04-03T05:49:36.814Z,59.86
2023-04-03T05:52:06.417Z,59.88
2023-04-03T05:54:35.645Z,59.68
2023-04-03T05:57:14.425Z,59.09
2023-04-03T05:59:44.982Z,59.36
2023-04-03T06:02:19.535Z,59.34
2023-04-03T06:04:50.491Z,58.22
2023-04-03T06:07:24.136Z,57.88
2023-04-03T06:09:53.455Z,57.60
2023-04-03T06:12:23.144Z,56.84
2023-04-03T06:14:52.707Z,56.29
2023-04-03T06:17:21.786Z,56.25
2023-04-03T06:19:50.154Z,55.91
2023-04-03T06:22:19.072Z,55.24
2023-04-03T06:24:49.010Z,56.24
2023-04-03T06:27:18.072Z,57.21
2023-04-03T06:29:47.785Z,58.48
2023-04-03T06:32:17.609Z,58.61
2023-04-03T06:34:47.817Z,58.57
2023-04-03T06:37:19.698Z,58.94
2023-04-03T06:39:49.628Z,59.15
2023-04-03T06:42:18.965Z,58.49
2023-04-03T06:44:54.580Z,57.98
2023-04-03T06:47:23.410Z,58.39
2023-04-03T06:49:51.813Z,58.35
2023-04-03T06:52:20.184Z,58.16
2023-04-03T06:54:48.604Z,58.47
2023-04-03T06:57:17.087Z,58.08
2023-04-03T06:59:45.878Z,57.88
2023-04-03T07:02:14.653Z,57.82
2023-04-03T07:04:43.616Z,57.41
2023-04-03T07:07:12.198Z,58.17
2023-04-03T07:09:43.133Z,58.37
2023-04-03T07:12:12.745Z,58.19
2023-04-03T07:14:41.921Z,58.28
2023-04-03T07:17:11.304Z,57.47
2023-04-03T07:19:40.843Z,57.32
2023-04-03T07:22:10.771Z,57.56
2023-04-03T07:24:40.271Z,57.51
2023-04-03T07:27:10.016Z,58.09
2023-04-03T07:29:40.692Z,58.08
2023-04-03T07:32:09.991Z,57.77
2023-04-03T07:34:39.132Z,57.43
2023-04-03T07:37:08.317Z,57.76
2023-04-03T07:39:38.133Z,57.91
2023-04-03T07:42:07.664Z,57.69
2023-04-03T07:44:38.092Z,57.26
2023-04-03T07:47:07.505Z,57.14
2023-04-03T07:49:39.850Z,57.71
2023-04-03T07:52:10.433Z,57.21
2023-04-03T07:54:39.151Z,57.51
2023-04-03T07:57:08.145Z,57.33
2023-04-03T07:59:38.140Z,57.11
2023-04-03T08:02:07.082Z,57.60
2023-04-03T08:04:36.469Z,57.49
2023-04-03T08:07:06.423Z,57.59
2023-04-03T08:09:35.158Z,57.67
2023-04-03T08:12:03.981Z,56.87
2023-04-03T08:14:35.855Z,57.09
2023-04-03T08:17:10.565Z,56.67
2023-04-03T08:19:41.132Z,56.58
2023-04-03T08:22:10.043Z,56.93
2023-04-03T08:24:43.149Z,57.16
2023-04-03T08:27:18.215Z,56.97
2023-04-03T08:29:46.854Z,56.83
2023-04-03T08:32:15.651Z,56.53
2023-04-03T08:34:44.070Z,56.77
2023-04-03T08:37:15.177Z,57.16
2023-04-03T08:39:45.108Z,56.83
2023-04-03T08:42:35.411Z,56.77
2023-04-03T08:45:14.005Z,55.70
2023-04-03T08:47:51.709Z,55.37
2023-04-03T08:50:31.563Z,55.11
2023-04-03T08:53:03.178Z,55.54
2023-04-03T08:56:00.498Z,55.98
2023-04-03T08:59:18.059Z,56.12
2023-04-03T09:01:47.463Z,55.62
2023-04-03T09:04:18.509Z,55.54
2023-04-03T09:06:54.454Z,55.38
2023-04-03T09:09:30.199Z,54.99
2023-04-03T09:12:28.541Z,55.25
2023-04-03T09:15:07.944Z,55.63
2023-04-03T09:18:06.561Z,55.74
2023-04-03T09:20:54.043Z,55.48
2023-04-03T09:23:35.020Z,55.32
2023-04-03T09:26:10.753Z,55.60
2023-04-03T09:28:50.443Z,55.65
2023-04-03T09:31:24.850Z,55.56
2023-04-03T09:34:04.485Z,54.37
2023-04-03T09:36:42.392Z,55.23
2023-04-03T09:39:20.994Z,54.68
2023-04-03T09:42:21.832Z,54.47
2023-04-03T09:45:23.616Z,54.49
2023-04-03T09:48:08.427Z,54.77
2023-04-03T09:51:00.833Z,54.97
2023-04-03T09:53:41.341Z,54.37
2023-04-03T09:56:25.069Z,54.29
2023-04-03T09:59:13.432Z,54.52
2023-04-03T10:01:45.685Z,54.90
2023-04-03T10:04:18.395Z,54.96
2023-04-03T10:06:53.777Z,54.93
2023-04-03T10:09:27.394Z,55.21
2023-04-03T10:12:03.058Z,55.31
2023-04-03T10:14:34.146Z,54.90
2023-04-03T10:17:28.724Z,54.18
2023-04-03T10:20:05.032Z,54.44
2023-04-03T10:22:56.775Z,54.68
2023-04-03T10:26:05.870Z,53.89
2023-04-03T10:29:22.487Z,53.57
2023-04-03T10:32:17.762Z,52.48
2023-04-03T10:34:58.528Z,52.64
2023-04-03T10:38:20.820Z,53.64
2023-04-03T10:41:03.623Z,54.03
2023-04-03T10:43:50.244Z,53.89
2023-04-03T10:46:48.446Z,52.67
2023-04-03T10:49:33.232Z,53.29
2023-04-03T10:52:07.647Z,53.48
2023-04-03T10:54:51.303Z,53.54
2023-04-03T10:57:20.982Z,52.97
2023-04-03T11:00:01.135Z,53.32
2023-04-03T11:02:40.196Z,52.63
2023-04-03T11:05:48.913Z,52.71
2023-04-03T11:08:41.066Z,53.64
2023-04-03T11:11:23.067Z,53.35
2023-04-03T11:14:07.590Z,53.42
2023-04-03T11:16:53.026Z,53.20
2023-04-03T11:19:46.464Z,53.16
2023-04-03T11:22:38.116Z,52.70
2023-04-03T11:25:13.216Z,53.09
2023-04-03T11:27:47.661Z,52.17
2023-04-03T11:30:45.009Z,52.92
2023-04-03T11:33:26.542Z,52.46
2023-04-03T11:36:30.526Z,52.88
2023-04-03T11:39:41.873Z,52.44
2023-04-03T11:42:27.375Z,52.04
2023-04-03T11:45:31.539Z,51.50
2023-04-03T11:48:29.932Z,52.04
2023-04-03T11:51:02.499Z,52.56
2023-04-03T11:53:37.434Z,52.33
2023-04-03T11:56:29.905Z,52.07
2023-04-03T11:59:15.357Z,51.47
2023-04-03T12:01:52.210Z,51.71
2023-04-03T12:04:26.236Z,51.52
2023-04-03T12:07:05.895Z,51.57
2023-04-03T12:09:43.945Z,50.86
2023-04-03T12:12:42.108Z,50.64
2023-04-03T12:15:25.831Z,50.82
2023-04-03T12:17:54.809Z,51.36
2023-04-03T12:20:56.569Z,51.84
2023-04-03T12:23:37.815Z,51.79
2023-04-03T12:26:32.406Z,51.81
2023-04-03T12:29:30.739Z,50.40
2023-04-03T12:32:08.949Z,49.97
2023-04-03T12:34:59.030Z,50.89
2023-04-03T12:37:57.731Z,51.38
2023-04-03T12:41:05.489Z,50.94
2023-04-03T12:44:00.891Z,50.89
2023-04-03T12:46:49.080Z,51.14
2023-04-03T12:49:43.844Z,51.04
2023-04-03T12:52:33.526Z,50.79
2023-04-03T12:55:06.228Z,50.89
2023-04-03T12:57:34.850Z,50.97
2023-04-03T13:00:23.884Z,51.18
2023-04-03T13:02:52.347Z,50.96
2023-04-03T13:05:23.746Z,50.45
2023-04-03T13:08:06.576Z,50.52
2023-04-03T13:10:49.421Z,51.18
2023-04-03T13:13:18.651Z,51.11
2023-04-03T13:15:54.212Z,50.50
2023-04-03T13:18:26.157Z,50.60
2023-04-03T13:20:59.947Z,51.00
2023-04-03T13:23:29.468Z,51.01
2023-04-03T13:26:02.826Z,50.10
2023-04-03T13:28:34.659Z,50.15
2023-04-03T13:31:07.198Z,49.89
2023-04-03T13:33:40.844Z,49.99
2023-04-03T13:36:22.805Z,50.06
2023-04-03T13:39:25.155Z,50.45
2023-04-03T13:44:46.034Z,50.02
2023-04-03T13:47:20.211Z,49.94
2023-04-03T13:50:26.691Z,50.24
2023-04-03T13:53:04.646Z,50.21
2023-04-03T13:55:39.216Z,50.14
2023-04-03T13:58:14.238Z,50.32
2023-04-03T14:01:19.027Z,50.38
2023-04-03T14:03:53.363Z,50.23
2023-04-03T14:06:22.196Z,49.86
2023-04-03T14:08:50.894Z,50.06
2023-04-03T14:11:22.510Z,50.14
2023-04-03T14:13:52.090Z,50.23
2023-04-03T14:16:28.504Z,50.23
2023-04-03T14:18:56.964Z,50.07
2023-04-03T14:21:28.705Z,50.31
2023-04-03T14:23:57.869Z,50.15
2023-04-03T14:26:29.152Z,50.41
2023-04-03T14:28:58.727Z,50.36
2023-04-03T14:31:27.997Z,50.44
2023-04-03T14:33:57.523Z,50.44
2023-04-03T14:36:28.839Z,49.97
2023-04-03T14:38:57.998Z,50.28
2023-04-03T14:41:27.429Z,50.27
2023-04-03T14:43:56.185Z,50.27
2023-04-03T14:46:26.562Z,50.18
2023-04-03T14:48:57.432Z,50.11
2023-04-03T14:51:25.891Z,49.94
2023-04-03T14:53:57.373Z,49.97
2023-04-03T14:56:29.285Z,50.17
2023-04-03T14:58:59.540Z,50.26
2023-04-03T15:01:30.215Z,49.74
2023-04-03T15:03:59.083Z,49.91
2023-04-03T15:06:28.223Z,50.08
2023-04-03T15:08:57.233Z,50.00
2023-04-03T15:11:27.686Z,50.13
2023-04-03T15:13:56.743Z,50.24
2023-04-03T15:16:25.902Z,49.77
2023-04-03T15:18:54.932Z,50.12
2023-04-03T15:21:23.990Z,50.03
2023-04-03T15:23:52.941Z,50.17
2023-04-03T15:26:21.892Z,50.19
2023-04-03T15:28:50.571Z,50.02
2023-04-03T15:31:18.991Z,50.12
2023-04-03T15:33:48.689Z,50.28
2023-04-03T15:38:51.695Z,50.13
2023-04-03T15:41:20.017Z,49.90
2023-04-03T15:43:48.305Z,50.34
2023-04-03T15:46:17.075Z,50.29
2023-04-03T15:48:46.240Z,50.41
2023-04-03T15:51:14.539Z,50.42
2023-04-03T15:53:43.585Z,50.00
2023-04-03T15:56:13.202Z,49.57
2023-04-03T15:58:41.524Z,49.76
2023-04-03T16:01:11.555Z,49.59
2023-04-03T16:03:46.489Z,49.71
2023-04-03T16:06:16.444Z,49.81
2023-04-03T16:08:45.127Z,49.75
2023-04-03T16:11:13.624Z,49.74
2023-04-03T16:13:44.291Z,49.83
2023-04-03T16:16:13.586Z,49.94
2023-04-03T16:18:43.014Z,49.94
2023-04-03T16:21:12.073Z,49.85
2023-04-03T16:23:41.468Z,49.80
2023-04-03T16:26:10.055Z,49.94
2023-04-03T16:28:38.873Z,50.01
2023-04-03T16:31:09.065Z,50.13
2023-04-03T16:33:37.923Z,50.04
2023-04-03T16:36:07.572Z,50.19
2023-04-03T16:38:37.350Z,49.94
2023-04-03T16:41:06.718Z,50.18
2023-04-03T16:43:37.187Z,50.13
2023-04-03T16:46:06.087Z,49.99
2023-04-03T16:48:35.079Z,50.01
2023-04-03T16:51:03.714Z,50.27
2023-04-03T16:53:33.175Z,50.17
2023-04-03T16:56:02.187Z,50.11
2023-04-03T16:58:31.485Z,49.95
2023-04-03T17:01:00.509Z,50.19
2023-04-03T17:03:29.966Z,50.21
2023-04-03T17:05:58.328Z,50.22
2023-04-03T17:08:28.010Z,49.92
2023-04-03T17:11:00.440Z,50.15
2023-04-03T17:13:32.725Z,50.14
2023-04-03T17:16:01.629Z,49.94
2023-04-03T17:18:30.239Z,49.62
2023-04-03T17:20:58.876Z,49.84
2023-04-03T17:23:29.550Z,49.87
2023-04-03T17:25:58.592Z,49.78
2023-04-03T17:28:29.167Z,49.68
2023-04-03T17:31:02.025Z,49.34
2023-04-03T17:33:31.541Z,49.52
2023-04-03T17:36:02.581Z,49.47
2023-04-03T17:38:31.905Z,49.54
2023-04-03T17:41:02.080Z,49.74
2023-04-03T17:43:31.418Z,49.53
2023-04-03T17:46:23.182Z,49.65
2023-04-03T17:48:52.477Z,49.78
2023-04-03T17:51:22.697Z,49.62
2023-04-03T17:53:51.368Z,49.83
2023-04-03T17:56:23.640Z,50.00
2023-04-03T17:58:52.294Z,50.06
2023-04-03T18:01:22.997Z,50.05
2023-04-03T18:03:56.825Z,50.45
2023-04-03T18:06:28.134Z,50.19
2023-04-03T18:08:59.555Z,50.41
2023-04-03T18:11:29.098Z,50.70
2023-04-03T18:14:00.271Z,50.46
2023-04-03T18:16:31.842Z,50.51
2023-04-03T18:19:12.119Z,50.58
2023-04-03T18:21:50.526Z,50.69
2023-04-03T18:24:20.432Z,50.51
2023-04-03T18:26:51.801Z,50.44
2023-04-03T18:29:21.053Z,50.65
2023-04-03T18:31:51.706Z,50.55
2023-04-03T18:34:20.465Z,50.47
2023-04-03T18:36:49.649Z,50.65
2023-04-03T18:39:18.086Z,50.73
2023-04-03T18:41:47.309Z,50.59
2023-04-03T18:44:18.512Z,50.22
2023-04-03T18:46:46.869Z,50.46
2023-04-03T18:49:17.147Z,50.21
2023-04-03T18:51:46.967Z,50.24
2023-04-03T18:54:17.129Z,50.17
2023-04-03T18:56:48.756Z,50.24
2023-04-03T18:59:22.725Z,50.21
2023-04-03T19:01:55.112Z,49.99
2023-04-03T19:04:28.277Z,50.26
2023-04-03T19:06:59.176Z,50.01
2023-04-03T19:09:30.914Z,49.96
2023-04-03T19:12:04.081Z,50.02
2023-04-03T19:14:36.786Z,49.94
2023-04-03T19:17:08.860Z,49.77
2023-04-03T19:19:39.518Z,49.92
2023-04-03T19:22:10.519Z,50.16
2023-04-03T19:24:42.593Z,49.97
2023-04-03T19:27:15.670Z,50.00
2023-04-03T19:29:45.991Z,50.09
2023-04-03T19:32:19.213Z,50.20
2023-04-03T19:34:50.601Z,49.93
2023-04-03T19:37:22.820Z,50.14
2023-04-03T19:39:55.130Z,50.04
2023-04-03T19:42:27.593Z,49.80
2023-04-03T19:44:58.047Z,50.03
2023-04-03T19:47:29.120Z,49.96
2023-04-03T19:49:58.071Z,50.22
2023-04-03T19:52:27.208Z,49.92
2023-04-03T19:54:55.954Z,50.00
2023-04-03T19:57:25.088Z,49.75
2023-04-03T19:59:53.428Z,49.85
2023-04-03T20:02:22.215Z,49.78
2023-04-03T20:04:51.704Z,49.66
2023-04-03T20:07:23.300Z,49.92
2023-04-03T20:09:55.188Z,49.63
2023-04-03T20:12:25.020Z,49.82
2023-04-03T20:14:55.746Z,49.84
2023-04-03T20:17:24.737Z,49.80
2023-04-03T20:19:53.814Z,49.82
2023-04-03T20:22:22.810Z,49.85
2023-04-03T20:24:51.788Z,49.85
2023-04-03T20:27:20.750Z,49.95
2023-04-03T20:29:50.055Z,49.97
2023-04-03T20:32:19.902Z,50.07
2023-04-03T20:34:57.513Z,50.12
2023-04-03T20:37:42.795Z,50.14
2023-04-03T20:40:12.577Z,50.13
2023-04-03T20:42:41.604Z,50.28
2023-04-03T20:45:12.067Z,50.33
2023-04-03T20:47:41.112Z,50.36
2023-04-03T20:50:09.774Z,50.32
2023-04-03T20:52:38.428Z,50.25
2023-04-03T20:55:07.836Z,50.46
2023-04-03T20:57:36.928Z,50.53
2023-04-03T21:00:05.864Z,50.50
2023-04-03T21:02:34.760Z,50.49
2023-04-03T21:05:03.779Z,50.52
2023-04-03T21:07:51.343Z,50.59
2023-04-03T21:10:39.702Z,50.56
2023-04-03T21:13:28.343Z,50.59
2023-04-03T21:16:00.169Z,50.61
2023-04-03T21:18:42.682Z,50.72
2023-04-03T21:21:23.571Z,50.65
2023-04-03T21:23:56.388Z,50.74
2023-04-03T21:26:26.732Z,50.72
2023-04-03T21:28:56.904Z,50.76
2023-04-03T21:31:45.717Z,50.64
2023-04-03T21:34:15.840Z,50.82
2023-04-03T21:36:45.382Z,50.81
2023-04-03T21:39:14.390Z,50.87
2023-04-03T21:41:43.614Z,50.90
2023-04-03T21:44:13.081Z,50.96
2023-04-03T21:46:43.646Z,51.03
2023-04-03T21:49:12.065Z,51.02
2023-04-03T21:51:42.509Z,50.95
2023-04-03T21:54:11.623Z,51.01
2023-04-03T21:56:40.895Z,51.07
2023-04-03T21:59:09.440Z,51.08
2023-04-03T22:01:37.917Z,51.05
2023-04-03T22:04:07.417Z,51.09
2023-04-03T22:06:37.638Z,51.14
2023-04-03T22:09:07.450Z,51.22
2023-04-03T22:11:38.929Z,51.35
2023-04-03T22:14:08.110Z,51.28
2023-04-03T22:16:37.440Z,51.21
2023-04-03T22:19:06.277Z,51.29
2023-04-03T22:21:35.533Z,51.27
2023-04-03T22:24:04.881Z,51.37
2023-04-03T22:26:35.585Z,51.54
2023-04-03T22:29:04.059Z,51.50
2023-04-03T22:31:33.341Z,51.53
2023-04-03T22:34:04.764Z,51.59
2023-04-03T22:36:34.187Z,51.54
2023-04-03T22:39:07.022Z,51.59
2023-04-03T22:41:36.747Z,51.73
2023-04-03T22:44:05.835Z,51.62
2023-04-03T22:46:35.641Z,51.72
2023-04-03T22:49:05.041Z,51.87
2023-04-03T22:51:33.970Z,51.77
2023-04-03T22:54:03.376Z,51.73
2023-04-03T22:56:32.657Z,51.84
2023-04-03T22:59:02.113Z,51.86
2023-04-03T23:01:31.489Z,51.94
2023-04-03T23:04:01.101Z,51.96
2023-04-03T23:06:30.539Z,52.04
2023-04-03T23:08:59.573Z,52.00
2023-04-03T23:11:28.705Z,52.05
2023-04-03T23:13:57.965Z,51.99
2023-04-03T23:16:26.929Z,52.01
2023-04-03T23:18:55.685Z,51.99
2023-04-03T23:21:24.658Z,51.99
2023-04-03T23:23:53.300Z,51.94
2023-04-03T23:26:21.272Z,51.95
2023-04-03T23:28:49.582Z,51.96
2023-04-03T23:31:18.660Z,52.00
2023-04-03T23:33:47.707Z,52.00
2023-04-03T23:36:17.537Z,52.03
2023-04-03T23:38:46.661Z,52.03
2023-04-03T23:41:15.363Z,52.11
2023-04-03T23:43:45.215Z,52.09
2023-04-03T23:46:14.204Z,52.14
2023-04-03T23:48:43.551Z,52.25
2023-04-03T23:51:12.882Z,52.17
2023-04-03T23:53:41.792Z,52.24
2023-04-03T23:56:14.145Z,52.37
2023-04-03T23:58:43.764Z,52.36
